sensor_id;sensor_type;location;lat;lon;timestamp;P1;durP1;ratioP1;P2;durP2;ratioP2
64419;SDS011;50745;48.170;14.516;2022-08-21T00:03:35;4.63;;;3.00;;
64419;SDS011;50745;48.170;14.516;2022-08-21T00:13:36;4.82;;;2.92;;
64419;SDS011;50745;48.170;14.516;2022-08-21T00:23:38;5.30;;;2.80;;
64419;SDS011;50745;48.170;14.516;2022-08-21T00:33:39;3.80;;;2.80;;
64419;SDS011;50745;48.170;14.516;2022-08-21T00:43:40;4.45;;;2.58;;
64419;SDS011;50745;48.170;14.516;2022-08-21T00:53:43;4.10;;;2.80;;
64419;SDS011;50745;48.170;14.516;2022-08-21T01:03:45;4.72;;;2.78;;
64419;SDS011;50745;48.170;14.516;2022-08-21T01:13:46;4.07;;;2.60;;
64419;SDS011;50745;48.170;14.516;2022-08-21T01:23:49;4.80;;;2.83;;
64419;SDS011;50745;48.170;14.516;2022-08-21T01:33:51;4.25;;;2.88;;
64419;SDS011;50745;48.170;14.516;2022-08-21T01:43:52;6.45;;;3.20;;
64419;SDS011;50745;48.170;14.516;2022-08-21T01:53:53;5.75;;;3.33;;
64419;SDS011;50745;48.170;14.516;2022-08-21T02:03:55;5.15;;;3.15;;
64419;SDS011;50745;48.170;14.516;2022-08-21T02:13:56;5.75;;;3.70;;
64419;SDS011;50745;48.170;14.516;2022-08-21T02:23:58;5.72;;;3.38;;
64419;SDS011;50745;48.170;14.516;2022-08-21T02:33:59;4.80;;;3.20;;
64419;SDS011;50745;48.170;14.516;2022-08-21T02:44:00;5.72;;;3.35;;
64419;SDS011;50745;48.170;14.516;2022-08-21T02:54:02;4.50;;;3.20;;
64419;SDS011;50745;48.170;14.516;2022-08-21T03:04:03;4.40;;;3.15;;
64419;SDS011;50745;48.170;14.516;2022-08-21T03:14:04;5.15;;;3.08;;
64419;SDS011;50745;48.170;14.516;2022-08-21T03:24:06;4.22;;;3.25;;
64419;SDS011;50745;48.170;14.516;2022-08-21T03:34:08;4.82;;;3.22;;
64419;SDS011;50745;48.170;14.516;2022-08-21T03:44:10;4.30;;;3.05;;
64419;SDS011;50745;48.170;14.516;2022-08-21T03:54:11;4.57;;;3.55;;
64419;SDS011;50745;48.170;14.516;2022-08-21T04:04:12;5.97;;;3.00;;
64419;SDS011;50745;48.170;14.516;2022-08-21T04:14:13;4.13;;;2.60;;
64419;SDS011;50745;48.170;14.516;2022-08-21T04:24:15;3.10;;;2.60;;
64419;SDS011;50745;48.170;14.516;2022-08-21T04:34:16;4.57;;;2.90;;
64419;SDS011;50745;48.170;14.516;2022-08-21T04:44:17;3.58;;;2.47;;
64419;SDS011;50745;48.170;14.516;2022-08-21T04:54:20;4.43;;;2.90;;
64419;SDS011;50745;48.170;14.516;2022-08-21T05:04:27;4.27;;;3.07;;
64419;SDS011;50745;48.170;14.516;2022-08-21T05:14:29;8.73;;;3.25;;
64419;SDS011;50745;48.170;14.516;2022-08-21T05:24:31;4.47;;;2.90;;
64419;SDS011;50745;48.170;14.516;2022-08-21T05:34:32;3.75;;;2.60;;
64419;SDS011;50745;48.170;14.516;2022-08-21T05:44:35;5.28;;;3.30;;
64419;SDS011;50745;48.170;14.516;2022-08-21T05:54:36;6.63;;;3.10;;
64419;SDS011;50745;48.170;14.516;2022-08-21T06:04:38;4.63;;;3.40;;
64419;SDS011;50745;48.170;14.516;2022-08-21T06:14:40;5.22;;;4.70;;
64419;SDS011;50745;48.170;14.516;2022-08-21T06:24:41;5.60;;;4.75;;
64419;SDS011;50745;48.170;14.516;2022-08-21T06:34:43;5.97;;;4.40;;
64419;SDS011;50745;48.170;14.516;2022-08-21T06:44:44;5.13;;;4.15;;
64419;SDS011;50745;48.170;14.516;2022-08-21T06:54:45;5.65;;;3.97;;
64419;SDS011;50745;48.170;14.516;2022-08-21T07:04:46;6.07;;;4.95;;
64419;SDS011;50745;48.170;14.516;2022-08-21T07:14:48;5.38;;;4.55;;
64419;SDS011;50745;48.170;14.516;2022-08-21T07:24:49;5.85;;;4.72;;
64419;SDS011;50745;48.170;14.516;2022-08-21T07:34:51;6.18;;;5.10;;
64419;SDS011;50745;48.170;14.516;2022-08-21T07:44:54;5.68;;;4.97;;
64419;SDS011;50745;48.170;14.516;2022-08-21T07:54:55;5.97;;;4.80;;
64419;SDS011;50745;48.170;14.516;2022-08-21T08:05:00;7.95;;;5.88;;
64419;SDS011;50745;48.170;14.516;2022-08-21T08:15:02;7.55;;;5.40;;
64419;SDS011;50745;48.170;14.516;2022-08-21T08:25:06;7.28;;;5.75;;
64419;SDS011;50745;48.170;14.516;2022-08-21T08:35:08;6.97;;;5.72;;
64419;SDS011;50745;48.170;14.516;2022-08-21T08:45:11;7.30;;;6.20;;
64419;SDS011;50745;48.170;14.516;2022-08-21T08:55:21;8.67;;;6.40;;
64419;SDS011;50745;48.170;14.516;2022-08-21T09:05:28;8.13;;;6.30;;
64419;SDS011;50745;48.170;14.516;2022-08-21T09:15:35;8.00;;;6.63;;
64419;SDS011;50745;48.170;14.516;2022-08-21T09:26:12;8.48;;;7.20;;
64419;SDS011;50745;48.170;14.516;2022-08-21T09:36:06;10.02;;;7.72;;
64419;SDS011;50745;48.170;14.516;2022-08-21T09:46:11;8.65;;;7.75;;
64419;SDS011;50745;48.170;14.516;2022-08-21T09:56:18;10.13;;;7.90;;
64419;SDS011;50745;48.170;14.516;2022-08-21T10:06:38;9.23;;;7.97;;
64419;SDS011;50745;48.170;14.516;2022-08-21T10:57:35;8.52;;;6.63;;
64419;SDS011;50745;48.170;14.516;2022-08-21T11:07:43;8.18;;;7.03;;
64419;SDS011;50745;48.170;14.516;2022-08-21T11:17:54;8.38;;;6.35;;
64419;SDS011;50745;48.170;14.516;2022-08-21T11:27:59;9.63;;;5.95;;
64419;SDS011;50745;48.170;14.516;2022-08-21T11:48:11;5.43;;;4.72;;
64419;SDS011;50745;48.170;14.516;2022-08-21T11:58:20;5.43;;;4.47;;
64419;SDS011;50745;48.170;14.516;2022-08-21T12:08:31;5.07;;;4.40;;
64419;SDS011;50745;48.170;14.516;2022-08-21T12:18:33;4.35;;;3.60;;
64419;SDS011;50745;48.170;14.516;2022-08-21T12:28:34;4.30;;;3.10;;
64419;SDS011;50745;48.170;14.516;2022-08-21T12:38:43;4.70;;;3.10;;
64419;SDS011;50745;48.170;14.516;2022-08-21T12:48:51;3.92;;;2.50;;
64419;SDS011;50745;48.170;14.516;2022-08-21T12:58:55;3.40;;;2.65;;
64419;SDS011;50745;48.170;14.516;2022-08-21T13:08:57;3.60;;;2.60;;
64419;SDS011;50745;48.170;14.516;2022-08-21T13:19:01;3.90;;;2.70;;
64419;SDS011;50745;48.170;14.516;2022-08-21T13:29:07;3.58;;;2.47;;
64419;SDS011;50745;48.170;14.516;2022-08-21T13:39:14;3.45;;;2.30;;
64419;SDS011;50745;48.170;14.516;2022-08-21T13:49:18;4.53;;;2.55;;
64419;SDS011;50745;48.170;14.516;2022-08-21T13:59:23;2.88;;;2.22;;
64419;SDS011;50745;48.170;14.516;2022-08-21T14:09:33;3.63;;;2.58;;
64419;SDS011;50745;48.170;14.516;2022-08-21T14:29:40;5.07;;;2.80;;
64419;SDS011;50745;48.170;14.516;2022-08-21T14:39:43;3.85;;;2.67;;
64419;SDS011;50745;48.170;14.516;2022-08-21T14:49:45;4.50;;;2.72;;
64419;SDS011;50745;48.170;14.516;2022-08-21T14:59:47;3.67;;;2.60;;
64419;SDS011;50745;48.170;14.516;2022-08-21T15:09:49;3.47;;;2.42;;
64419;SDS011;50745;48.170;14.516;2022-08-21T15:19:50;3.75;;;2.72;;
64419;SDS011;50745;48.170;14.516;2022-08-21T15:29:51;4.95;;;3.33;;
64419;SDS011;50745;48.170;14.516;2022-08-21T15:39:55;4.10;;;3.22;;
64419;SDS011;50745;48.170;14.516;2022-08-21T15:49:56;5.18;;;3.60;;
64419;SDS011;50745;48.170;14.516;2022-08-21T16:00:00;5.22;;;3.83;;
64419;SDS011;50745;48.170;14.516;2022-08-21T16:20:15;5.28;;;3.53;;
64419;SDS011;50745;48.170;14.516;2022-08-21T16:30:18;4.50;;;3.50;;
64419;SDS011;50745;48.170;14.516;2022-08-21T16:40:20;4.30;;;3.58;;
64419;SDS011;50745;48.170;14.516;2022-08-21T16:50:27;4.47;;;3.67;;
64419;SDS011;50745;48.170;14.516;2022-08-21T17:00:28;4.43;;;3.30;;
64419;SDS011;50745;48.170;14.516;2022-08-21T17:10:29;4.95;;;3.50;;
64419;SDS011;50745;48.170;14.516;2022-08-21T17:20:31;4.65;;;3.47;;
64419;SDS011;50745;48.170;14.516;2022-08-21T17:30:32;4.35;;;3.40;;
64419;SDS011;50745;48.170;14.516;2022-08-21T17:40:33;4.90;;;3.35;;
64419;SDS011;50745;48.170;14.516;2022-08-21T17:50:35;5.22;;;3.65;;
64419;SDS011;50745;48.170;14.516;2022-08-21T18:00:36;4.00;;;3.40;;
64419;SDS011;50745;48.170;14.516;2022-08-21T18:10:38;4.50;;;3.55;;
64419;SDS011;50745;48.170;14.516;2022-08-21T18:20:40;4.18;;;3.47;;
64419;SDS011;50745;48.170;14.516;2022-08-21T18:30:42;4.78;;;3.40;;
64419;SDS011;50745;48.170;14.516;2022-08-21T18:40:47;4.30;;;3.55;;
64419;SDS011;50745;48.170;14.516;2022-08-21T18:50:49;5.25;;;4.05;;
64419;SDS011;50745;48.170;14.516;2022-08-21T19:00:50;4.57;;;3.70;;
64419;SDS011;50745;48.170;14.516;2022-08-21T19:10:53;4.60;;;3.63;;
64419;SDS011;50745;48.170;14.516;2022-08-21T19:20:55;4.82;;;3.95;;
64419;SDS011;50745;48.170;14.516;2022-08-21T19:30:58;5.03;;;4.00;;
64419;SDS011;50745;48.170;14.516;2022-08-21T19:51:02;4.80;;;3.80;;
64419;SDS011;50745;48.170;14.516;2022-08-21T20:01:05;5.72;;;4.40;;
64419;SDS011;50745;48.170;14.516;2022-08-21T20:11:06;4.80;;;4.03;;
64419;SDS011;50745;48.170;14.516;2022-08-21T20:21:08;6.47;;;4.00;;
64419;SDS011;50745;48.170;14.516;2022-08-21T20:31:13;6.05;;;4.32;;
64419;SDS011;50745;48.170;14.516;2022-08-21T20:41:15;4.95;;;3.95;;
64419;SDS011;50745;48.170;14.516;2022-08-21T20:51:19;5.18;;;4.20;;
64419;SDS011;50745;48.170;14.516;2022-08-21T21:01:21;4.88;;;4.13;;
64419;SDS011;50745;48.170;14.516;2022-08-21T21:32:21;5.00;;;4.18;;
64419;SDS011;50745;48.170;14.516;2022-08-21T21:42:34;6.18;;;4.55;;
64419;SDS011;50745;48.170;14.516;2022-08-21T21:52:51;6.60;;;4.50;;
64419;SDS011;50745;48.170;14.516;2022-08-21T22:03:11;5.38;;;3.92;;
64419;SDS011;50745;48.170;14.516;2022-08-21T22:23:27;6.97;;;4.10;;
64419;SDS011;50745;48.170;14.516;2022-08-21T22:33:28;5.17;;;4.33;;
64419;SDS011;50745;48.170;14.516;2022-08-21T22:43:30;5.28;;;3.97;;
64419;SDS011;50745;48.170;14.516;2022-08-21T22:53:32;7.25;;;4.30;;
64419;SDS011;50745;48.170;14.516;2022-08-21T23:03:43;7.07;;;4.32;;
64419;SDS011;50745;48.170;14.516;2022-08-21T23:13:45;6.05;;;3.83;;
64419;SDS011;50745;48.170;14.516;2022-08-21T23:24:02;6.20;;;3.90;;
64419;SDS011;50745;48.170;14.516;2022-08-21T23:34:09;5.28;;;3.92;;
